createdAt,value
2018-05-12T00:00:48.969Z,68.30
2018-05-12T00:03:16.418Z,68.30
2018-05-12T00:05:43.864Z,68.80
2018-05-12T00:08:11.328Z,69.20
2018-05-12T00:10:38.784Z,69.80
2018-05-12T00:13:06.246Z,70.90
2018-05-12T00:15:33.682Z,71.10
2018-05-12T00:18:01.129Z,71.80
2018-05-12T00:20:28.676Z,71.00
2018-05-12T00:22:56.069Z,71.10
2018-05-12T00:25:23.513Z,71.70
2018-05-12T00:27:50.959Z,71.70
2018-05-12T00:30:18.416Z,71.40
2018-05-12T00:32:45.864Z,71.30
2018-05-12T00:35:14.066Z,71.20
2018-05-12T00:37:41.525Z,71.10
2018-05-12T00:40:08.967Z,71.20
2018-05-12T00:42:36.413Z,71.10
2018-05-12T00:45:04.674Z,71.40
2018-05-12T00:47:32.114Z,71.30
2018-05-12T00:49:59.572Z,71.40
2018-05-12T00:52:27.009Z,71.10
2018-05-12T00:54:54.466Z,71.10
2018-05-12T00:57:21.898Z,71.30
2018-05-12T00:59:49.353Z,71.60
2018-05-12T01:02:16.786Z,71.90
2018-05-12T01:04:44.244Z,72.30
2018-05-12T01:07:11.702Z,72.60
2018-05-12T01:09:39.915Z,73.00
2018-05-12T01:12:07.346Z,72.90
2018-05-12T01:14:34.790Z,72.80
2018-05-12T01:17:02.238Z,72.60
2018-05-12T01:19:29.694Z,72.70
2018-05-12T01:21:57.226Z,72.70
2018-05-12T01:24:24.689Z,72.70
2018-05-12T01:26:52.130Z,72.70
2018-05-12T01:29:19.586Z,73.40
2018-05-12T01:31:47.021Z,73.90
2018-05-12T01:34:14.474Z,74.30
2018-05-12T01:36:41.924Z,74.40
2018-05-12T01:39:09.366Z,74.50
2018-05-12T01:41:36.833Z,74.70
2018-05-12T01:44:05.299Z,74.30
2018-05-12T01:46:33.502Z,74.00
2018-05-12T01:49:00.958Z,74.00
2018-05-12T01:51:28.425Z,74.20
2018-05-12T01:53:56.641Z,74.80
2018-05-12T01:56:25.104Z,74.80
2018-05-12T01:58:53.363Z,74.50
2018-05-12T02:01:20.815Z,74.50
2018-05-12T02:03:48.301Z,74.60
2018-05-12T02:06:15.803Z,74.00
2018-05-12T02:08:43.221Z,74.50
2018-05-12T02:11:11.326Z,73.50
2018-05-12T02:13:38.754Z,73.60
2018-05-12T02:16:06.237Z,73.80
2018-05-12T02:18:33.666Z,73.90
2018-05-12T02:21:01.113Z,74.10
2018-05-12T02:23:28.567Z,73.80
2018-05-12T02:25:56.784Z,74.20
2018-05-12T02:28:24.838Z,74.20
2018-05-12T02:30:52.282Z,73.90
2018-05-12T02:33:19.749Z,73.60
2018-05-12T02:35:47.216Z,73.80
2018-05-12T02:38:15.431Z,74.00
2018-05-12T02:40:42.901Z,74.00
2018-05-12T02:45:46.250Z,74.50
2018-05-12T02:48:13.715Z,74.50
2018-05-12T02:50:41.182Z,74.60
2018-05-12T02:53:09.398Z,74.30
2018-05-12T02:55:37.607Z,73.80
2018-05-12T02:58:05.057Z,73.80
2018-05-12T03:00:32.505Z,73.80
2018-05-12T03:02:59.958Z,73.20
2018-05-12T03:05:27.550Z,72.90
2018-05-12T03:07:54.982Z,72.00
2018-05-12T03:10:22.436Z,71.80
2018-05-12T03:12:49.905Z,71.50
2018-05-12T03:15:18.145Z,71.10
2018-05-12T03:17:45.580Z,71.10
2018-05-12T03:20:13.037Z,71.20
2018-05-12T03:22:40.515Z,71.10
2018-05-12T03:25:08.726Z,71.20
2018-05-12T03:27:36.185Z,71.20
2018-05-12T03:30:03.638Z,71.20
2018-05-12T03:32:31.857Z,70.80
2018-05-12T03:34:59.300Z,70.70
2018-05-12T03:37:26.742Z,70.60
2018-05-12T03:39:54.195Z,70.80
2018-05-12T03:42:21.734Z,71.00
2018-05-12T03:44:49.194Z,71.00
2018-05-12T03:47:16.645Z,71.10
2018-05-12T03:49:44.103Z,71.00
2018-05-12T03:52:12.315Z,72.50
2018-05-12T03:54:39.754Z,72.50
2018-05-12T03:57:07.241Z,72.90
2018-05-12T03:59:34.749Z,73.20
2018-05-12T04:02:02.207Z,72.80
2018-05-12T04:04:41.506Z,72.70
2018-05-12T04:07:20.995Z,72.50
2018-05-12T04:10:02.100Z,71.60
2018-05-12T04:12:38.024Z,71.50
2018-05-12T04:15:05.486Z,71.40
2018-05-12T04:17:33.025Z,71.20
2018-05-12T04:20:00.462Z,70.90
2018-05-12T04:22:27.958Z,70.70
2018-05-12T04:24:55.403Z,71.00
2018-05-12T04:27:23.611Z,71.00
2018-05-12T04:29:51.059Z,71.10
2018-05-12T04:32:18.508Z,71.10
2018-05-12T04:34:46.710Z,71.40
2018-05-12T04:37:14.938Z,71.20
2018-05-12T04:39:42.382Z,71.30
2018-05-12T04:42:09.827Z,71.50
2018-05-12T04:44:37.281Z,72.10
2018-05-12T04:47:04.799Z,72.50
2018-05-12T04:49:32.245Z,72.50
2018-05-12T04:51:59.690Z,72.40
2018-05-12T04:54:27.132Z,72.20
2018-05-12T04:56:54.600Z,71.40
2018-05-12T04:59:22.052Z,71.00
2018-05-12T05:01:49.521Z,70.50
2018-05-12T05:04:16.967Z,70.50
2018-05-12T05:06:44.406Z,70.40
2018-05-12T05:09:11.863Z,70.60
2018-05-12T05:11:39.302Z,70.70
2018-05-12T05:14:06.744Z,71.20
2018-05-12T05:16:34.182Z,71.50
2018-05-12T05:19:01.628Z,71.90
2018-05-12T05:21:29.090Z,71.30
2018-05-12T05:23:56.538Z,71.00
2018-05-12T05:26:23.987Z,70.10
2018-05-12T05:28:51.446Z,69.70
2018-05-12T05:31:18.890Z,69.00
2018-05-12T05:33:46.346Z,68.00
2018-05-12T05:36:13.805Z,67.50
2018-05-12T05:38:42.034Z,67.20
2018-05-12T05:41:09.474Z,67.10
2018-05-12T05:43:36.944Z,67.20
2018-05-12T05:46:04.382Z,67.30
2018-05-12T05:48:32.593Z,66.10
2018-05-12T05:51:00.046Z,66.00
2018-05-12T05:53:27.493Z,65.40
2018-05-12T05:55:54.943Z,65.30
2018-05-12T05:58:22.403Z,64.60
2018-05-12T06:00:49.866Z,64.60
2018-05-12T06:03:17.322Z,64.00
2018-05-12T06:05:45.540Z,63.70
2018-05-12T06:08:12.997Z,63.70
2018-05-12T06:13:14.306Z,63.10
2018-05-12T06:15:41.751Z,61.90
2018-05-12T06:18:09.269Z,61.90
2018-05-12T06:20:36.666Z,62.50
2018-05-12T06:23:04.150Z,61.90
2018-05-12T06:25:31.618Z,61.60
2018-05-12T06:27:59.072Z,60.50
2018-05-12T06:30:26.544Z,59.70
2018-05-12T06:32:53.985Z,58.90
2018-05-12T06:35:22.269Z,56.50
2018-05-12T06:37:50.473Z,56.10
2018-05-12T06:40:17.931Z,56.00
2018-05-12T06:42:45.384Z,55.10
2018-05-12T06:45:13.319Z,54.50
2018-05-12T06:47:40.769Z,54.10
2018-05-12T06:50:08.203Z,52.90
2018-05-12T06:52:35.672Z,52.90
2018-05-12T06:55:03.122Z,52.10
2018-05-12T06:57:31.371Z,51.80
2018-05-12T06:59:58.817Z,50.90
2018-05-12T07:02:26.294Z,51.10
2018-05-12T07:04:53.790Z,51.80
2018-05-12T07:07:21.239Z,51.30
2018-05-12T07:09:48.674Z,51.40
2018-05-12T07:12:16.182Z,51.40
2018-05-12T07:14:44.341Z,51.00
2018-05-12T07:17:11.793Z,51.10
2018-05-12T07:19:39.234Z,50.10
2018-05-12T07:22:06.703Z,50.20
2018-05-12T07:24:34.162Z,50.00
2018-05-12T07:27:01.629Z,50.00
2018-05-12T07:29:29.850Z,50.10
2018-05-12T07:31:57.334Z,50.10
2018-05-12T07:34:25.557Z,49.60
2018-05-12T07:36:52.983Z,49.60
2018-05-12T07:39:20.434Z,49.10
2018-05-12T07:41:47.892Z,48.00
2018-05-12T07:44:15.339Z,48.10
2018-05-12T07:46:42.786Z,47.80
2018-05-12T07:49:10.238Z,46.20
2018-05-12T07:51:37.794Z,45.20
2018-05-12T07:54:05.154Z,44.40
2018-05-12T07:56:32.599Z,43.30
2018-05-12T07:59:00.059Z,42.80
2018-05-12T08:01:27.518Z,42.30
2018-05-12T08:03:56.175Z,41.80
2018-05-12T08:06:23.686Z,42.10
2018-05-12T08:08:51.909Z,40.80
2018-05-12T08:11:19.398Z,40.70
2018-05-12T08:13:47.622Z,40.30
2018-05-12T08:16:15.050Z,40.30
2018-05-12T08:18:42.522Z,39.40
2018-05-12T08:21:10.729Z,38.90
2018-05-12T08:23:38.165Z,38.80
2018-05-12T08:26:05.619Z,37.60
2018-05-12T08:28:33.071Z,36.70
2018-05-12T08:31:00.586Z,37.40
2018-05-12T08:33:28.031Z,36.70
2018-05-12T08:35:55.489Z,36.60
2018-05-12T08:38:22.965Z,36.70
2018-05-12T08:40:50.451Z,36.30
2018-05-12T08:43:17.893Z,36.80
2018-05-12T08:45:45.410Z,37.20
2018-05-12T08:48:13.657Z,37.60
2018-05-12T08:50:41.080Z,37.60
2018-05-12T08:53:08.527Z,36.10
2018-05-12T08:55:35.985Z,35.80
2018-05-12T08:58:03.443Z,34.70
2018-05-12T09:00:31.691Z,34.00
2018-05-12T09:02:59.142Z,33.90
2018-05-12T09:05:27.359Z,34.40
2018-05-12T09:07:54.822Z,33.60
2018-05-12T09:10:22.273Z,34.80
2018-05-12T09:12:49.733Z,35.60
2018-05-12T09:15:17.190Z,35.00
2018-05-12T09:17:44.643Z,34.70
2018-05-12T09:20:12.070Z,35.10
2018-05-12T09:22:40.297Z,34.50
2018-05-12T09:25:07.755Z,34.50
2018-05-12T09:27:35.238Z,34.00
2018-05-12T09:30:02.681Z,32.00
2018-05-12T09:32:30.127Z,32.90
2018-05-12T09:34:57.586Z,33.30
2018-05-12T09:37:25.069Z,31.30
2018-05-12T09:39:52.525Z,32.00
2018-05-12T09:42:20.060Z,33.30
2018-05-12T09:44:47.423Z,32.40
2018-05-12T09:47:15.627Z,30.40
2018-05-12T09:49:43.108Z,30.40
2018-05-12T09:52:10.550Z,29.90
2018-05-12T09:54:38.018Z,29.30
2018-05-12T09:57:06.356Z,30.30
2018-05-12T09:59:33.844Z,28.30
2018-05-12T10:02:01.274Z,27.50
2018-05-12T10:04:28.778Z,28.90
2018-05-12T10:06:56.226Z,29.80
2018-05-12T10:09:23.670Z,29.30
2018-05-12T10:11:51.181Z,28.10
2018-05-12T10:14:18.613Z,27.70
2018-05-12T10:16:46.053Z,29.10
2018-05-12T10:19:13.502Z,28.20
2018-05-12T10:21:40.965Z,28.90
2018-05-12T10:24:08.398Z,29.40
2018-05-12T10:26:35.873Z,28.10
2018-05-12T10:29:03.325Z,27.40
2018-05-12T10:31:30.794Z,27.70
2018-05-12T10:33:58.237Z,27.60
2018-05-12T10:36:25.698Z,27.20
2018-05-12T10:38:53.148Z,27.00
2018-05-12T10:41:20.608Z,26.90
2018-05-12T10:43:48.043Z,27.00
2018-05-12T10:46:15.553Z,26.60
2018-05-12T10:48:42.995Z,27.40
2018-05-12T10:51:10.466Z,28.30
2018-05-12T10:53:37.921Z,29.50
2018-05-12T10:56:05.387Z,30.40
2018-05-12T10:58:32.846Z,30.10
2018-05-12T11:01:00.274Z,28.30
2018-05-12T11:03:27.746Z,30.40
2018-05-12T11:05:55.975Z,29.30
2018-05-12T11:08:23.433Z,29.30
2018-05-12T11:10:51.689Z,30.50
2018-05-12T11:13:19.126Z,30.50
2018-05-12T11:15:47.617Z,30.60
2018-05-12T11:18:15.086Z,31.50
2018-05-12T11:20:42.562Z,32.50
2018-05-12T11:23:10.018Z,32.40
2018-05-12T11:25:37.541Z,31.10
2018-05-12T11:28:05.034Z,31.50
2018-05-12T11:30:32.492Z,31.20
2018-05-12T11:32:59.946Z,31.70
2018-05-12T11:35:27.395Z,31.70
2018-05-12T11:37:54.853Z,32.10
2018-05-12T11:40:22.360Z,30.70
2018-05-12T11:42:49.816Z,31.10
2018-05-12T11:45:17.257Z,31.00
2018-05-12T11:47:44.730Z,28.60
2018-05-12T11:50:12.962Z,32.60
2018-05-12T11:52:40.374Z,32.00
2018-05-12T11:55:08.598Z,33.10
2018-05-12T11:57:36.080Z,33.10
2018-05-12T12:00:03.559Z,32.80
2018-05-12T12:02:31.067Z,31.90
2018-05-12T12:04:58.457Z,31.90
2018-05-12T12:07:25.907Z,31.40
2018-05-12T12:09:53.354Z,31.30
2018-05-12T12:12:20.800Z,28.90
2018-05-12T12:14:48.258Z,29.40
2018-05-12T12:17:15.682Z,29.80
2018-05-12T12:19:43.127Z,29.90
2018-05-12T12:22:10.568Z,30.40
2018-05-12T12:24:38.074Z,30.40
2018-05-12T12:27:05.557Z,29.30
2018-05-12T12:29:33.017Z,29.00
2018-05-12T12:32:00.501Z,30.00
2018-05-12T12:34:27.947Z,30.00
2018-05-12T12:36:55.402Z,29.40
2018-05-12T12:39:22.857Z,29.70
2018-05-12T12:41:50.326Z,29.60
2018-05-12T12:44:17.770Z,30.00
2018-05-12T12:46:45.216Z,30.00
2018-05-12T12:49:12.686Z,31.00
2018-05-12T12:51:40.992Z,30.00
2018-05-12T12:54:08.433Z,30.00
2018-05-12T12:56:35.885Z,30.00
2018-05-12T12:59:03.387Z,30.00
2018-05-12T13:01:31.609Z,29.10
2018-05-12T13:03:59.086Z,29.10
2018-05-12T13:06:27.275Z,29.80
2018-05-12T13:08:54.727Z,29.70
2018-05-12T13:11:22.185Z,30.00
2018-05-12T13:13:49.637Z,29.90
2018-05-12T13:19:07.669Z,29.60
2018-05-12T13:21:35.153Z,29.40
2018-05-12T13:24:03.329Z,29.30
2018-05-12T13:26:30.770Z,29.30
2018-05-12T13:28:58.227Z,29.50
2018-05-12T13:31:25.683Z,29.70
2018-05-12T13:33:53.130Z,29.30
2018-05-12T13:36:20.600Z,29.90
2018-05-12T13:38:48.063Z,29.60
2018-05-12T13:41:16.276Z,30.00
2018-05-12T13:43:43.726Z,30.00
2018-05-12T13:46:11.968Z,29.90
2018-05-12T13:48:39.403Z,29.80
2018-05-12T13:51:06.876Z,30.60
2018-05-12T13:53:34.333Z,30.00
2018-05-12T13:56:01.886Z,29.60
2018-05-12T13:58:29.320Z,30.10
2018-05-12T14:00:56.862Z,30.10
2018-05-12T14:03:24.342Z,30.50
2018-05-12T14:05:52.542Z,31.20
2018-05-12T14:08:19.980Z,31.20
2018-05-12T14:10:47.434Z,30.90
2018-05-12T14:13:14.880Z,30.80
2018-05-12T14:15:42.321Z,31.30
2018-05-12T14:18:09.779Z,31.20
2018-05-12T14:20:37.210Z,30.20
2018-05-12T14:23:05.607Z,29.50
2018-05-12T14:25:33.809Z,30.00
2018-05-12T14:28:01.266Z,30.00
2018-05-12T14:30:28.851Z,29.90
2018-05-12T14:32:57.222Z,30.10
2018-05-12T14:35:25.423Z,29.30
2018-05-12T14:37:52.862Z,29.30
2018-05-12T14:40:20.313Z,28.60
2018-05-12T14:42:47.770Z,28.30
2018-05-12T14:45:15.297Z,28.30
2018-05-12T14:47:42.740Z,28.40
2018-05-12T14:50:10.173Z,28.60
2018-05-12T14:52:37.640Z,28.90
2018-05-12T14:55:05.083Z,28.60
2018-05-12T14:57:32.538Z,28.60
2018-05-12T14:59:59.973Z,28.10
2018-05-12T15:02:27.481Z,27.90
2018-05-12T15:04:54.873Z,27.60
2018-05-12T15:07:22.307Z,27.50
2018-05-12T15:09:51.257Z,27.00
2018-05-12T15:12:18.704Z,27.00
2018-05-12T15:14:46.218Z,26.90
2018-05-12T15:17:13.720Z,27.30
2018-05-12T15:19:41.167Z,28.00
2018-05-12T15:22:08.611Z,28.30
2018-05-12T15:24:36.109Z,28.00
2018-05-12T15:27:03.565Z,27.40
2018-05-12T15:29:30.993Z,27.80
2018-05-12T15:31:58.446Z,27.50
2018-05-12T15:34:25.907Z,27.60
2018-05-12T15:36:53.392Z,27.90
2018-05-12T15:39:21.634Z,27.90
2018-05-12T15:41:50.012Z,27.90
2018-05-12T15:44:17.439Z,28.50
2018-05-12T15:46:44.941Z,28.50
2018-05-12T15:49:12.367Z,28.30
2018-05-12T15:51:39.820Z,28.30
2018-05-12T15:54:07.272Z,28.70
2018-05-12T15:56:34.718Z,28.80
2018-05-12T15:59:02.166Z,28.80
2018-05-12T16:01:29.626Z,28.70
2018-05-12T16:03:57.082Z,28.60
2018-05-12T16:06:24.529Z,28.40
2018-05-12T16:08:51.954Z,28.00
2018-05-12T16:11:19.385Z,28.10
2018-05-12T16:13:46.831Z,27.90
2018-05-12T16:16:14.319Z,27.50
2018-05-12T16:18:42.540Z,27.50
2018-05-12T16:21:09.967Z,27.50
2018-05-12T16:23:37.411Z,27.50
2018-05-12T16:26:04.834Z,26.90
2018-05-12T16:28:32.269Z,27.30
2018-05-12T16:30:59.730Z,27.80
2018-05-12T16:33:27.182Z,27.90
2018-05-12T16:35:54.602Z,28.10
2018-05-12T16:38:22.058Z,28.40
2018-05-12T16:40:49.504Z,28.30
2018-05-12T16:43:16.966Z,28.50
2018-05-12T16:45:44.424Z,28.70
2018-05-12T16:48:11.879Z,28.90
2018-05-12T16:50:39.305Z,29.20
2018-05-12T16:53:06.741Z,28.70
2018-05-12T16:55:34.193Z,28.60
2018-05-12T16:58:01.641Z,29.10
2018-05-12T17:00:29.099Z,28.50
2018-05-12T17:02:57.306Z,28.80
2018-05-12T17:05:25.086Z,28.80
2018-05-12T17:07:52.518Z,29.10
2018-05-12T17:10:19.950Z,29.00
2018-05-12T17:12:47.391Z,29.20
2018-05-12T17:15:14.817Z,29.20
2018-05-12T17:17:42.318Z,29.10
2018-05-12T17:20:09.838Z,29.10
2018-05-12T17:22:37.294Z,29.30
2018-05-12T17:25:04.722Z,29.40
2018-05-12T17:27:32.174Z,29.10
2018-05-12T17:29:59.703Z,29.20
2018-05-12T17:32:27.141Z,29.10
2018-05-12T17:34:54.569Z,29.00
2018-05-12T17:37:22.010Z,29.30
2018-05-12T17:39:49.446Z,29.60
2018-05-12T17:42:16.913Z,29.80
2018-05-12T17:44:44.370Z,29.50
2018-05-12T17:47:11.813Z,29.70
2018-05-12T17:49:39.241Z,29.70
2018-05-12T17:52:06.673Z,30.00
2018-05-12T17:54:34.122Z,30.00
2018-05-12T17:57:01.570Z,30.00
2018-05-12T17:59:29.030Z,30.00
2018-05-12T18:01:56.466Z,30.30
2018-05-12T18:04:23.963Z,30.30
2018-05-12T18:06:51.462Z,30.40
2018-05-12T18:09:19.703Z,30.90
2018-05-12T18:11:47.135Z,30.80
2018-05-12T18:14:14.571Z,31.10
2018-05-12T18:16:42.046Z,31.10
2018-05-12T18:19:09.514Z,31.50
2018-05-12T18:21:36.971Z,31.80
2018-05-12T18:24:05.205Z,31.60
2018-05-12T18:26:32.671Z,31.60
2018-05-12T18:29:00.889Z,31.60
2018-05-12T18:31:28.333Z,31.70
2018-05-12T18:33:55.787Z,31.50
2018-05-12T18:36:23.230Z,31.70
2018-05-12T18:38:50.699Z,31.70
2018-05-12T18:41:18.231Z,31.80
2018-05-12T18:43:45.769Z,31.70
2018-05-12T18:46:13.227Z,31.80
2018-05-12T18:48:40.667Z,32.00
2018-05-12T18:51:08.095Z,32.00
2018-05-12T18:53:35.554Z,32.30
2018-05-12T18:56:03.000Z,32.50
2018-05-12T18:58:30.450Z,32.50
2018-05-12T19:00:58.651Z,32.90
2018-05-12T19:03:26.100Z,32.90
2018-05-12T19:05:53.539Z,32.80
2018-05-12T19:08:21.022Z,32.90
2018-05-12T19:10:48.566Z,33.10
2018-05-12T19:13:16.014Z,33.30
2018-05-12T19:15:43.459Z,33.40
2018-05-12T19:18:10.913Z,34.40
2018-05-12T19:20:39.107Z,34.10
2018-05-12T19:23:06.558Z,34.10
2018-05-12T19:25:34.030Z,34.30
2018-05-12T19:28:01.511Z,34.50
2018-05-12T19:30:28.945Z,34.70
2018-05-12T19:32:56.394Z,35.10
2018-05-12T19:35:24.595Z,35.20
2018-05-12T19:37:52.027Z,35.20
2018-05-12T19:40:19.467Z,35.10
2018-05-12T19:42:46.923Z,35.50
2018-05-12T19:45:14.483Z,35.80
2018-05-12T19:47:41.917Z,35.90
2018-05-12T19:50:09.362Z,36.30
2018-05-12T19:52:36.793Z,36.60
2018-05-12T19:55:04.249Z,37.70
2018-05-12T19:57:31.712Z,37.40
2018-05-12T19:59:59.146Z,37.60
2018-05-12T20:02:26.584Z,38.00
2018-05-12T20:04:54.141Z,38.30
2018-05-12T20:07:22.258Z,39.50
2018-05-12T20:09:49.716Z,38.90
2018-05-12T20:12:21.978Z,39.20
2018-05-12T20:14:49.412Z,39.20
2018-05-12T20:17:16.857Z,39.40
2018-05-12T20:19:44.341Z,39.30
2018-05-12T20:22:11.784Z,39.30
2018-05-12T20:24:39.242Z,39.60
2018-05-12T20:27:07.433Z,40.20
2018-05-12T20:29:34.875Z,40.20
2018-05-12T20:32:02.342Z,40.80
2018-05-12T20:34:29.799Z,41.00
2018-05-12T20:36:57.293Z,41.20
2018-05-12T20:39:24.730Z,41.50
2018-05-12T20:41:52.154Z,41.70
2018-05-12T20:44:20.364Z,42.10
2018-05-12T20:46:47.797Z,42.80
2018-05-12T20:49:15.249Z,42.30
2018-05-12T20:51:42.698Z,42.50
2018-05-12T20:54:10.157Z,42.60
2018-05-12T20:56:37.617Z,42.70
2018-05-12T20:59:05.079Z,43.10
2018-05-12T21:01:33.274Z,43.70
2018-05-12T21:04:00.724Z,43.70
2018-05-12T21:06:28.174Z,43.70
2018-05-12T21:08:55.619Z,44.00
2018-05-12T21:11:23.118Z,44.10
2018-05-12T21:13:50.552Z,44.10
2018-05-12T21:16:18.751Z,44.50
2018-05-12T21:18:46.206Z,44.30
2018-05-12T21:21:13.660Z,44.60
2018-05-12T21:23:41.106Z,44.50
2018-05-12T21:26:08.550Z,44.60
2018-05-12T21:28:36.002Z,44.60
2018-05-12T21:31:03.458Z,45.00
2018-05-12T21:33:32.137Z,45.70
2018-05-12T21:36:00.357Z,45.80
2018-05-12T21:38:27.789Z,45.80
2018-05-12T21:40:55.250Z,45.90
2018-05-12T21:43:23.443Z,46.50
2018-05-12T21:45:50.915Z,46.50
2018-05-12T21:48:18.339Z,46.70
2018-05-12T21:50:46.546Z,46.70
2018-05-12T21:53:13.986Z,46.70
2018-05-12T21:55:41.458Z,46.60
2018-05-12T21:58:08.897Z,46.70
2018-05-12T22:00:36.338Z,46.70
2018-05-12T22:03:03.770Z,46.60
2018-05-12T22:05:31.225Z,47.20
2018-05-12T22:07:58.745Z,47.00
2018-05-12T22:10:26.142Z,47.30
2018-05-12T22:12:54.355Z,48.40
2018-05-12T22:15:21.832Z,48.30
2018-05-12T22:17:49.259Z,48.60
2018-05-12T22:20:16.725Z,48.90
2018-05-12T22:22:44.915Z,49.00
2018-05-12T22:25:12.372Z,49.00
2018-05-12T22:27:39.813Z,49.20
2018-05-12T22:30:07.286Z,49.30
2018-05-12T22:32:34.731Z,49.30
2018-05-12T22:35:02.184Z,49.30
2018-05-12T22:37:29.622Z,49.00
2018-05-12T22:39:57.073Z,49.00
2018-05-12T22:42:24.528Z,49.30
2018-05-12T22:44:52.748Z,50.00
2018-05-12T22:47:20.327Z,50.00
2018-05-12T22:49:47.748Z,49.70
2018-05-12T22:52:15.220Z,49.80
2018-05-12T22:54:42.665Z,50.10
2018-05-12T22:57:10.873Z,50.10
2018-05-12T22:59:38.314Z,50.10
2018-05-12T23:02:05.750Z,50.70
2018-05-12T23:04:33.190Z,51.10
2018-05-12T23:07:01.450Z,52.50
2018-05-12T23:09:28.886Z,51.90
2018-05-12T23:11:56.316Z,52.10
2018-05-12T23:14:23.769Z,52.10
2018-05-12T23:16:51.210Z,51.80
2018-05-12T23:19:18.668Z,52.10
2018-05-12T23:21:46.117Z,52.00
2018-05-12T23:24:13.567Z,52.00
2018-05-12T23:26:41.037Z,52.30
2018-05-12T23:29:08.489Z,52.50
2018-05-12T23:31:36.693Z,53.20
2018-05-12T23:34:04.146Z,52.90
2018-05-12T23:36:31.583Z,52.70
2018-05-12T23:38:59.031Z,52.80
2018-05-12T23:41:26.494Z,53.00
2018-05-12T23:43:53.933Z,52.80
2018-05-12T23:46:21.390Z,53.10
2018-05-12T23:48:48.851Z,53.00
2018-05-12T23:51:17.115Z,52.60
2018-05-12T23:53:44.510Z,52.60
2018-05-12T23:56:11.965Z,52.60
2018-05-12T23:58:39.462Z,52.80
